sensor_id;sensor_type;location;lat;lon;timestamp;P1;durP1;ratioP1;P2;durP2;ratioP2
20802;SDS011;10562;-33.856;151.182;2024-02-28T00:01:49;17.80;;;3.88;;
20802;SDS011;10562;-33.856;151.182;2024-02-28T00:04:20;18.60;;;4.00;;
20802;SDS011;10562;-33.856;151.182;2024-02-28T00:06:52;17.15;;;4.07;;
20802;SDS011;10562;-33.856;151.182;2024-02-28T00:09:23;15.20;;;3.83;;
20802;SDS011;10562;-33.856;151.182;2024-02-28T00:11:55;11.48;;;3.75;;
20802;SDS011;10562;-33.856;151.182;2024-02-28T00:14:26;16.33;;;3.95;;
20802;SDS011;10562;-33.856;151.182;2024-02-28T00:16:56;16.05;;;3.50;;
20802;SDS011;10562;-33.856;151.182;2024-02-28T00:19:27;14.90;;;3.63;;
20802;SDS011;10562;-33.856;151.182;2024-02-28T00:22:00;13.75;;;3.72;;
20802;SDS011;10562;-33.856;151.182;2024-02-28T00:24:31;15.73;;;3.45;;
20802;SDS011;10562;-33.856;151.182;2024-02-28T00:27:01;12.18;;;3.00;;
20802;SDS011;10562;-33.856;151.182;2024-02-28T00:29:32;17.20;;;3.60;;
20802;SDS011;10562;-33.856;151.182;2024-02-28T00:32:03;10.75;;;3.28;;
20802;SDS011;10562;-33.856;151.182;2024-02-28T00:34:34;13.35;;;3.08;;
20802;SDS011;10562;-33.856;151.182;2024-02-28T00:37:07;15.57;;;3.08;;
20802;SDS011;10562;-33.856;151.182;2024-02-28T00:39:38;13.48;;;3.17;;
20802;SDS011;10562;-33.856;151.182;2024-02-28T00:42:09;13.13;;;3.33;;
20802;SDS011;10562;-33.856;151.182;2024-02-28T00:44:40;13.07;;;3.40;;
20802;SDS011;10562;-33.856;151.182;2024-02-28T00:47:10;18.65;;;3.25;;
20802;SDS011;10562;-33.856;151.182;2024-02-28T00:49:41;11.73;;;2.92;;
20802;SDS011;10562;-33.856;151.182;2024-02-28T00:52:14;12.00;;;3.30;;
20802;SDS011;10562;-33.856;151.182;2024-02-28T00:54:45;13.90;;;2.92;;
20802;SDS011;10562;-33.856;151.182;2024-02-28T00:57:15;19.00;;;3.00;;
20802;SDS011;10562;-33.856;151.182;2024-02-28T00:59:46;13.85;;;3.10;;
20802;SDS011;10562;-33.856;151.182;2024-02-28T01:02:17;9.68;;;2.88;;
20802;SDS011;10562;-33.856;151.182;2024-02-28T01:04:47;11.02;;;2.60;;
20802;SDS011;10562;-33.856;151.182;2024-02-28T01:07:20;10.70;;;2.85;;
20802;SDS011;10562;-33.856;151.182;2024-02-28T01:09:51;14.30;;;2.88;;
20802;SDS011;10562;-33.856;151.182;2024-02-28T01:12:22;10.73;;;2.78;;
20802;SDS011;10562;-33.856;151.182;2024-02-28T01:14:52;14.98;;;3.05;;
20802;SDS011;10562;-33.856;151.182;2024-02-28T01:17:23;13.75;;;3.05;;
20802;SDS011;10562;-33.856;151.182;2024-02-28T01:19:54;16.27;;;3.10;;
20802;SDS011;10562;-33.856;151.182;2024-02-28T01:22:31;15.13;;;3.13;;
20802;SDS011;10562;-33.856;151.182;2024-02-28T01:25:07;9.98;;;2.53;;
20802;SDS011;10562;-33.856;151.182;2024-02-28T01:27:38;20.80;;;3.22;;
20802;SDS011;10562;-33.856;151.182;2024-02-28T01:30:09;14.95;;;2.90;;
20802;SDS011;10562;-33.856;151.182;2024-02-28T01:32:40;17.33;;;3.08;;
20802;SDS011;10562;-33.856;151.182;2024-02-28T01:35:11;13.57;;;3.00;;
20802;SDS011;10562;-33.856;151.182;2024-02-28T01:37:44;17.95;;;2.90;;
20802;SDS011;10562;-33.856;151.182;2024-02-28T01:40:15;14.55;;;2.95;;
20802;SDS011;10562;-33.856;151.182;2024-02-28T01:42:46;16.33;;;3.10;;
20802;SDS011;10562;-33.856;151.182;2024-02-28T01:45:18;14.23;;;3.00;;
20802;SDS011;10562;-33.856;151.182;2024-02-28T01:47:49;16.58;;;2.95;;
20802;SDS011;10562;-33.856;151.182;2024-02-28T01:50:20;14.63;;;2.97;;
20802;SDS011;10562;-33.856;151.182;2024-02-28T01:52:53;13.20;;;2.80;;
20802;SDS011;10562;-33.856;151.182;2024-02-28T01:55:24;14.50;;;2.70;;
20802;SDS011;10562;-33.856;151.182;2024-02-28T01:57:55;15.63;;;3.20;;
20802;SDS011;10562;-33.856;151.182;2024-02-28T02:00:26;15.95;;;3.05;;
20802;SDS011;10562;-33.856;151.182;2024-02-28T02:02:58;16.75;;;3.30;;
20802;SDS011;10562;-33.856;151.182;2024-02-28T02:05:29;14.10;;;3.15;;
20802;SDS011;10562;-33.856;151.182;2024-02-28T02:08:02;15.52;;;3.25;;
20802;SDS011;10562;-33.856;151.182;2024-02-28T02:10:33;14.32;;;2.90;;
20802;SDS011;10562;-33.856;151.182;2024-02-28T02:13:05;15.88;;;3.20;;
20802;SDS011;10562;-33.856;151.182;2024-02-28T02:15:36;15.15;;;3.25;;
20802;SDS011;10562;-33.856;151.182;2024-02-28T02:18:07;14.82;;;3.05;;
20802;SDS011;10562;-33.856;151.182;2024-02-28T02:20:38;13.68;;;3.25;;
20802;SDS011;10562;-33.856;151.182;2024-02-28T02:23:15;16.55;;;3.20;;
20802;SDS011;10562;-33.856;151.182;2024-02-28T02:25:46;13.50;;;3.30;;
20802;SDS011;10562;-33.856;151.182;2024-02-28T02:28:17;12.05;;;3.00;;
20802;SDS011;10562;-33.856;151.182;2024-02-28T02:30:48;16.48;;;3.20;;
20802;SDS011;10562;-33.856;151.182;2024-02-28T02:33:19;14.80;;;3.17;;
20802;SDS011;10562;-33.856;151.182;2024-02-28T02:35:49;14.88;;;3.47;;
20802;SDS011;10562;-33.856;151.182;2024-02-28T02:38:23;14.48;;;3.15;;
20802;SDS011;10562;-33.856;151.182;2024-02-28T02:40:53;15.77;;;3.28;;
20802;SDS011;10562;-33.856;151.182;2024-02-28T02:43:24;12.52;;;2.95;;
20802;SDS011;10562;-33.856;151.182;2024-02-28T02:45:55;10.02;;;2.88;;
20802;SDS011;10562;-33.856;151.182;2024-02-28T02:48:26;17.45;;;2.88;;
20802;SDS011;10562;-33.856;151.182;2024-02-28T02:51:00;17.92;;;3.60;;
20802;SDS011;10562;-33.856;151.182;2024-02-28T02:53:33;13.65;;;2.92;;
20802;SDS011;10562;-33.856;151.182;2024-02-28T02:56:04;16.63;;;3.40;;
20802;SDS011;10562;-33.856;151.182;2024-02-28T02:58:35;14.27;;;3.15;;
20802;SDS011;10562;-33.856;151.182;2024-02-28T03:01:06;15.80;;;3.30;;
20802;SDS011;10562;-33.856;151.182;2024-02-28T03:03:37;14.35;;;3.42;;
20802;SDS011;10562;-33.856;151.182;2024-02-28T03:06:08;15.40;;;3.05;;
20802;SDS011;10562;-33.856;151.182;2024-02-28T03:08:41;12.40;;;3.25;;
20802;SDS011;10562;-33.856;151.182;2024-02-28T03:11:12;14.95;;;3.13;;
20802;SDS011;10562;-33.856;151.182;2024-02-28T03:13:42;13.43;;;2.50;;
20802;SDS011;10562;-33.856;151.182;2024-02-28T03:16:13;10.75;;;2.63;;
20802;SDS011;10562;-33.856;151.182;2024-02-28T03:18:44;13.73;;;2.95;;
20802;SDS011;10562;-33.856;151.182;2024-02-28T03:21:15;9.48;;;2.60;;
20802;SDS011;10562;-33.856;151.182;2024-02-28T03:23:48;17.40;;;3.33;;
20802;SDS011;10562;-33.856;151.182;2024-02-28T03:26:19;14.70;;;3.30;;
20802;SDS011;10562;-33.856;151.182;2024-02-28T03:28:50;8.70;;;2.47;;
20802;SDS011;10562;-33.856;151.182;2024-02-28T03:31:21;11.80;;;2.95;;
20802;SDS011;10562;-33.856;151.182;2024-02-28T03:33:52;11.95;;;2.70;;
20802;SDS011;10562;-33.856;151.182;2024-02-28T03:36:23;16.75;;;3.20;;
20802;SDS011;10562;-33.856;151.182;2024-02-28T03:38:55;14.57;;;2.92;;
20802;SDS011;10562;-33.856;151.182;2024-02-28T03:41:26;13.85;;;2.70;;
20802;SDS011;10562;-33.856;151.182;2024-02-28T03:43:57;13.15;;;3.10;;
20802;SDS011;10562;-33.856;151.182;2024-02-28T03:46:28;14.02;;;2.97;;
20802;SDS011;10562;-33.856;151.182;2024-02-28T03:48:58;11.98;;;2.80;;
20802;SDS011;10562;-33.856;151.182;2024-02-28T03:51:29;20.05;;;2.95;;
20802;SDS011;10562;-33.856;151.182;2024-02-28T03:54:02;14.70;;;2.75;;
20802;SDS011;10562;-33.856;151.182;2024-02-28T03:56:33;13.90;;;2.95;;
20802;SDS011;10562;-33.856;151.182;2024-02-28T03:59:04;13.15;;;3.10;;
20802;SDS011;10562;-33.856;151.182;2024-02-28T04:01:35;10.85;;;3.08;;
20802;SDS011;10562;-33.856;151.182;2024-02-28T04:04:05;13.82;;;2.97;;
20802;SDS011;10562;-33.856;151.182;2024-02-28T04:06:36;13.00;;;2.80;;
20802;SDS011;10562;-33.856;151.182;2024-02-28T04:09:09;14.95;;;3.00;;
20802;SDS011;10562;-33.856;151.182;2024-02-28T04:11:40;11.80;;;2.70;;
20802;SDS011;10562;-33.856;151.182;2024-02-28T04:14:11;13.55;;;3.10;;
20802;SDS011;10562;-33.856;151.182;2024-02-28T04:16:42;12.95;;;2.90;;
20802;SDS011;10562;-33.856;151.182;2024-02-28T04:19:13;11.68;;;2.80;;
20802;SDS011;10562;-33.856;151.182;2024-02-28T04:21:45;9.63;;;2.60;;
20802;SDS011;10562;-33.856;151.182;2024-02-28T04:24:17;18.75;;;3.08;;
20802;SDS011;10562;-33.856;151.182;2024-02-28T04:26:48;11.60;;;2.53;;
20802;SDS011;10562;-33.856;151.182;2024-02-28T04:29:21;14.13;;;2.70;;
20802;SDS011;10562;-33.856;151.182;2024-02-28T04:31:52;13.55;;;2.88;;
20802;SDS011;10562;-33.856;151.182;2024-02-28T04:34:24;14.88;;;2.47;;
20802;SDS011;10562;-33.856;151.182;2024-02-28T04:36:54;13.93;;;3.10;;
20802;SDS011;10562;-33.856;151.182;2024-02-28T04:39:27;11.80;;;2.65;;
20802;SDS011;10562;-33.856;151.182;2024-02-28T04:41:58;14.93;;;2.85;;
20802;SDS011;10562;-33.856;151.182;2024-02-28T04:44:28;15.45;;;3.08;;
20802;SDS011;10562;-33.856;151.182;2024-02-28T04:46:59;15.75;;;3.33;;
20802;SDS011;10562;-33.856;151.182;2024-02-28T04:49:30;10.65;;;2.80;;
20802;SDS011;10562;-33.856;151.182;2024-02-28T04:52:01;16.55;;;3.20;;
20802;SDS011;10562;-33.856;151.182;2024-02-28T04:54:35;10.80;;;2.90;;
20802;SDS011;10562;-33.856;151.182;2024-02-28T04:57:08;14.77;;;3.13;;
20802;SDS011;10562;-33.856;151.182;2024-02-28T04:59:41;15.15;;;2.70;;
20802;SDS011;10562;-33.856;151.182;2024-02-28T05:02:13;15.48;;;2.90;;
20802;SDS011;10562;-33.856;151.182;2024-02-28T05:04:43;18.08;;;2.70;;
20802;SDS011;10562;-33.856;151.182;2024-02-28T05:07:14;10.25;;;2.67;;
20802;SDS011;10562;-33.856;151.182;2024-02-28T05:09:47;13.93;;;2.72;;
20802;SDS011;10562;-33.856;151.182;2024-02-28T05:12:17;11.60;;;2.63;;
20802;SDS011;10562;-33.856;151.182;2024-02-28T05:14:48;13.95;;;2.95;;
20802;SDS011;10562;-33.856;151.182;2024-02-28T05:17:19;21.95;;;2.97;;
20802;SDS011;10562;-33.856;151.182;2024-02-28T05:19:50;12.40;;;2.50;;
20802;SDS011;10562;-33.856;151.182;2024-02-28T05:22:20;15.02;;;3.00;;
20802;SDS011;10562;-33.856;151.182;2024-02-28T05:24:53;15.32;;;2.80;;
20802;SDS011;10562;-33.856;151.182;2024-02-28T05:27:24;17.17;;;2.88;;
20802;SDS011;10562;-33.856;151.182;2024-02-28T05:29:55;14.80;;;3.25;;
20802;SDS011;10562;-33.856;151.182;2024-02-28T05:32:27;12.93;;;2.88;;
20802;SDS011;10562;-33.856;151.182;2024-02-28T05:34:58;14.55;;;2.78;;
20802;SDS011;10562;-33.856;151.182;2024-02-28T05:37:28;12.88;;;3.05;;
20802;SDS011;10562;-33.856;151.182;2024-02-28T05:40:02;14.52;;;3.00;;
20802;SDS011;10562;-33.856;151.182;2024-02-28T05:42:35;14.07;;;2.97;;
20802;SDS011;10562;-33.856;151.182;2024-02-28T05:45:06;12.73;;;2.70;;
20802;SDS011;10562;-33.856;151.182;2024-02-28T05:47:38;12.93;;;2.67;;
20802;SDS011;10562;-33.856;151.182;2024-02-28T05:50:09;12.13;;;2.58;;
20802;SDS011;10562;-33.856;151.182;2024-02-28T05:52:41;12.25;;;2.60;;
20802;SDS011;10562;-33.856;151.182;2024-02-28T05:55:14;14.55;;;3.10;;
20802;SDS011;10562;-33.856;151.182;2024-02-28T05:57:45;12.88;;;2.63;;
20802;SDS011;10562;-33.856;151.182;2024-02-28T06:00:16;13.63;;;3.03;;
20802;SDS011;10562;-33.856;151.182;2024-02-28T06:02:47;14.32;;;2.92;;
20802;SDS011;10562;-33.856;151.182;2024-02-28T06:05:18;14.77;;;2.42;;
20802;SDS011;10562;-33.856;151.182;2024-02-28T06:07:49;14.18;;;2.67;;
20802;SDS011;10562;-33.856;151.182;2024-02-28T06:10:23;17.52;;;3.00;;
20802;SDS011;10562;-33.856;151.182;2024-02-28T06:12:55;18.23;;;2.75;;
20802;SDS011;10562;-33.856;151.182;2024-02-28T06:15:26;10.90;;;2.55;;
20802;SDS011;10562;-33.856;151.182;2024-02-28T06:17:57;14.57;;;3.05;;
20802;SDS011;10562;-33.856;151.182;2024-02-28T06:20:29;14.77;;;2.80;;
20802;SDS011;10562;-33.856;151.182;2024-02-28T06:23:00;14.15;;;2.72;;
20802;SDS011;10562;-33.856;151.182;2024-02-28T06:25:33;15.13;;;2.90;;
20802;SDS011;10562;-33.856;151.182;2024-02-28T06:28:04;17.08;;;2.92;;
20802;SDS011;10562;-33.856;151.182;2024-02-28T06:30:36;14.65;;;2.97;;
20802;SDS011;10562;-33.856;151.182;2024-02-28T06:33:07;15.07;;;3.03;;
20802;SDS011;10562;-33.856;151.182;2024-02-28T06:35:38;17.00;;;3.00;;
20802;SDS011;10562;-33.856;151.182;2024-02-28T06:38:09;18.77;;;3.33;;
20802;SDS011;10562;-33.856;151.182;2024-02-28T06:40:42;15.13;;;2.95;;
20802;SDS011;10562;-33.856;151.182;2024-02-28T06:43:13;16.27;;;2.67;;
20802;SDS011;10562;-33.856;151.182;2024-02-28T06:45:44;13.15;;;2.50;;
20802;SDS011;10562;-33.856;151.182;2024-02-28T06:48:15;17.42;;;3.10;;
20802;SDS011;10562;-33.856;151.182;2024-02-28T06:50:46;16.38;;;3.10;;
20802;SDS011;10562;-33.856;151.182;2024-02-28T06:53:17;20.65;;;3.30;;
20802;SDS011;10562;-33.856;151.182;2024-02-28T06:55:49;14.75;;;3.35;;
20802;SDS011;10562;-33.856;151.182;2024-02-28T06:58:20;21.25;;;3.17;;
20802;SDS011;10562;-33.856;151.182;2024-02-28T07:00:52;14.50;;;3.13;;
20802;SDS011;10562;-33.856;151.182;2024-02-28T07:03:22;17.67;;;3.03;;
20802;SDS011;10562;-33.856;151.182;2024-02-28T07:05:53;22.00;;;3.13;;
20802;SDS011;10562;-33.856;151.182;2024-02-28T07:08:24;18.65;;;3.00;;
20802;SDS011;10562;-33.856;151.182;2024-02-28T07:10:57;19.70;;;2.65;;
20802;SDS011;10562;-33.856;151.182;2024-02-28T07:13:27;19.08;;;3.22;;
20802;SDS011;10562;-33.856;151.182;2024-02-28T07:15:58;15.57;;;3.58;;
20802;SDS011;10562;-33.856;151.182;2024-02-28T07:18:30;20.98;;;3.53;;
20802;SDS011;10562;-33.856;151.182;2024-02-28T07:21:00;19.35;;;3.28;;
20802;SDS011;10562;-33.856;151.182;2024-02-28T07:23:33;21.30;;;3.40;;
20802;SDS011;10562;-33.856;151.182;2024-02-28T07:26:06;16.10;;;3.28;;
20802;SDS011;10562;-33.856;151.182;2024-02-28T07:28:36;17.38;;;2.80;;
20802;SDS011;10562;-33.856;151.182;2024-02-28T07:31:13;21.30;;;3.67;;
20802;SDS011;10562;-33.856;151.182;2024-02-28T07:33:44;22.65;;;3.55;;
20802;SDS011;10562;-33.856;151.182;2024-02-28T07:36:15;17.10;;;3.53;;
20802;SDS011;10562;-33.856;151.182;2024-02-28T07:38:46;19.52;;;3.38;;
20802;SDS011;10562;-33.856;151.182;2024-02-28T07:41:20;18.73;;;2.95;;
20802;SDS011;10562;-33.856;151.182;2024-02-28T07:43:51;17.25;;;3.20;;
20802;SDS011;10562;-33.856;151.182;2024-02-28T07:46:21;21.10;;;3.53;;
20802;SDS011;10562;-33.856;151.182;2024-02-28T07:48:52;25.20;;;3.78;;
20802;SDS011;10562;-33.856;151.182;2024-02-28T07:51:23;23.80;;;3.90;;
20802;SDS011;10562;-33.856;151.182;2024-02-28T07:53:54;17.23;;;3.28;;
20802;SDS011;10562;-33.856;151.182;2024-02-28T07:56:26;18.73;;;3.33;;
20802;SDS011;10562;-33.856;151.182;2024-02-28T07:58:58;20.67;;;4.00;;
20802;SDS011;10562;-33.856;151.182;2024-02-28T08:01:28;17.95;;;3.58;;
20802;SDS011;10562;-33.856;151.182;2024-02-28T08:03:59;26.13;;;4.10;;
20802;SDS011;10562;-33.856;151.182;2024-02-28T08:06:30;21.30;;;3.65;;
20802;SDS011;10562;-33.856;151.182;2024-02-28T08:09:01;25.92;;;3.97;;
20802;SDS011;10562;-33.856;151.182;2024-02-28T08:11:35;23.65;;;3.50;;
20802;SDS011;10562;-33.856;151.182;2024-02-28T08:14:06;17.75;;;3.35;;
20802;SDS011;10562;-33.856;151.182;2024-02-28T08:16:37;20.65;;;3.47;;
20802;SDS011;10562;-33.856;151.182;2024-02-28T08:19:08;17.75;;;3.80;;
20802;SDS011;10562;-33.856;151.182;2024-02-28T08:21:39;15.73;;;3.67;;
20802;SDS011;10562;-33.856;151.182;2024-02-28T08:24:10;22.48;;;3.85;;
20802;SDS011;10562;-33.856;151.182;2024-02-28T08:26:43;21.13;;;3.78;;
20802;SDS011;10562;-33.856;151.182;2024-02-28T08:29:13;18.50;;;3.78;;
20802;SDS011;10562;-33.856;151.182;2024-02-28T08:31:45;24.15;;;3.80;;
20802;SDS011;10562;-33.856;151.182;2024-02-28T08:34:16;21.38;;;3.75;;
20802;SDS011;10562;-33.856;151.182;2024-02-28T08:36:47;27.52;;;4.10;;
20802;SDS011;10562;-33.856;151.182;2024-02-28T08:39:18;20.40;;;3.58;;
20802;SDS011;10562;-33.856;151.182;2024-02-28T08:41:51;16.58;;;3.70;;
20802;SDS011;10562;-33.856;151.182;2024-02-28T08:44:22;22.05;;;3.97;;
20802;SDS011;10562;-33.856;151.182;2024-02-28T08:46:53;21.15;;;4.10;;
20802;SDS011;10562;-33.856;151.182;2024-02-28T08:49:24;19.13;;;3.95;;
20802;SDS011;10562;-33.856;151.182;2024-02-28T08:51:54;18.67;;;4.05;;
20802;SDS011;10562;-33.856;151.182;2024-02-28T08:54:25;23.45;;;4.45;;
20802;SDS011;10562;-33.856;151.182;2024-02-28T08:56:58;26.13;;;4.50;;
20802;SDS011;10562;-33.856;151.182;2024-02-28T08:59:29;21.40;;;3.55;;
20802;SDS011;10562;-33.856;151.182;2024-02-28T09:02:00;25.42;;;4.55;;
20802;SDS011;10562;-33.856;151.182;2024-02-28T09:04:32;22.80;;;3.67;;
20802;SDS011;10562;-33.856;151.182;2024-02-28T09:07:03;23.70;;;4.80;;
20802;SDS011;10562;-33.856;151.182;2024-02-28T09:09:34;22.92;;;3.97;;
20802;SDS011;10562;-33.856;151.182;2024-02-28T09:12:07;24.75;;;4.30;;
20802;SDS011;10562;-33.856;151.182;2024-02-28T09:14:39;22.05;;;4.60;;
20802;SDS011;10562;-33.856;151.182;2024-02-28T09:17:11;23.38;;;4.65;;
20802;SDS011;10562;-33.856;151.182;2024-02-28T09:19:42;24.63;;;4.63;;
20802;SDS011;10562;-33.856;151.182;2024-02-28T09:22:13;20.13;;;4.10;;
20802;SDS011;10562;-33.856;151.182;2024-02-28T09:24:43;25.75;;;4.22;;
20802;SDS011;10562;-33.856;151.182;2024-02-28T09:27:16;21.08;;;4.38;;
20802;SDS011;10562;-33.856;151.182;2024-02-28T13:22:14;19.63;;;5.53;;
20802;SDS011;10562;-33.856;151.182;2024-02-28T13:24:45;28.30;;;6.22;;
20802;SDS011;10562;-33.856;151.182;2024-02-28T13:27:16;22.85;;;5.72;;
20802;SDS011;10562;-33.856;151.182;2024-02-28T13:29:46;21.95;;;5.70;;
20802;SDS011;10562;-33.856;151.182;2024-02-28T13:32:17;23.60;;;5.95;;
20802;SDS011;10562;-33.856;151.182;2024-02-28T13:34:48;31.42;;;6.82;;
20802;SDS011;10562;-33.856;151.182;2024-02-28T13:37:21;22.52;;;6.00;;
20802;SDS011;10562;-33.856;151.182;2024-02-28T13:39:52;27.50;;;6.72;;
20802;SDS011;10562;-33.856;151.182;2024-02-28T13:42:23;24.17;;;5.85;;
20802;SDS011;10562;-33.856;151.182;2024-02-28T13:44:53;25.75;;;6.03;;
20802;SDS011;10562;-33.856;151.182;2024-02-28T13:47:24;29.52;;;6.90;;
20802;SDS011;10562;-33.856;151.182;2024-02-28T13:49:55;26.85;;;6.10;;
20802;SDS011;10562;-33.856;151.182;2024-02-28T13:52:28;26.20;;;6.13;;
20802;SDS011;10562;-33.856;151.182;2024-02-28T13:54:59;24.45;;;8.80;;
20802;SDS011;10562;-33.856;151.182;2024-02-28T13:57:29;27.60;;;6.22;;
20802;SDS011;10562;-33.856;151.182;2024-02-28T14:00:00;21.85;;;6.25;;
20802;SDS011;10562;-33.856;151.182;2024-02-28T14:02:35;29.38;;;5.70;;
20802;SDS011;10562;-33.856;151.182;2024-02-28T14:05:06;24.15;;;5.82;;
20802;SDS011;10562;-33.856;151.182;2024-02-28T14:07:38;26.10;;;6.47;;
20802;SDS011;10562;-33.856;151.182;2024-02-28T14:10:09;32.30;;;6.53;;
20802;SDS011;10562;-33.856;151.182;2024-02-28T14:12:42;29.50;;;6.88;;
20802;SDS011;10562;-33.856;151.182;2024-02-28T14:15:12;20.20;;;5.78;;
20802;SDS011;10562;-33.856;151.182;2024-02-28T14:17:43;26.85;;;6.30;;
20802;SDS011;10562;-33.856;151.182;2024-02-28T14:20:14;16.27;;;5.43;;
20802;SDS011;10562;-33.856;151.182;2024-02-28T14:22:47;23.15;;;5.93;;
20802;SDS011;10562;-33.856;151.182;2024-02-28T14:25:18;28.92;;;6.40;;
20802;SDS011;10562;-33.856;151.182;2024-02-28T14:27:49;16.77;;;5.72;;
20802;SDS011;10562;-33.856;151.182;2024-02-28T14:30:19;20.75;;;6.15;;
20802;SDS011;10562;-33.856;151.182;2024-02-28T14:32:51;21.73;;;6.28;;
20802;SDS011;10562;-33.856;151.182;2024-02-28T14:35:21;26.33;;;9.07;;
20802;SDS011;10562;-33.856;151.182;2024-02-28T14:37:54;31.52;;;7.60;;
20802;SDS011;10562;-33.856;151.182;2024-02-28T14:40:25;28.00;;;7.07;;
20802;SDS011;10562;-33.856;151.182;2024-02-28T14:42:56;27.95;;;7.55;;
20802;SDS011;10562;-33.856;151.182;2024-02-28T14:45:26;28.58;;;7.45;;
20802;SDS011;10562;-33.856;151.182;2024-02-28T14:47:58;22.05;;;6.65;;
20802;SDS011;10562;-33.856;151.182;2024-02-28T14:50:29;23.20;;;7.03;;
20802;SDS011;10562;-33.856;151.182;2024-02-28T14:53:01;24.83;;;8.07;;
20802;SDS011;10562;-33.856;151.182;2024-02-28T14:55:32;26.63;;;8.73;;
20802;SDS011;10562;-33.856;151.182;2024-02-28T14:58:03;26.35;;;7.88;;
20802;SDS011;10562;-33.856;151.182;2024-02-28T15:00:34;23.30;;;7.63;;
20802;SDS011;10562;-33.856;151.182;2024-02-28T15:03:04;24.98;;;7.57;;
20802;SDS011;10562;-33.856;151.182;2024-02-28T15:05:35;31.20;;;8.02;;
20802;SDS011;10562;-33.856;151.182;2024-02-28T15:08:08;22.38;;;7.93;;
20802;SDS011;10562;-33.856;151.182;2024-02-28T15:10:39;27.85;;;8.40;;
20802;SDS011;10562;-33.856;151.182;2024-02-28T15:13:10;22.77;;;8.57;;
20802;SDS011;10562;-33.856;151.182;2024-02-28T15:15:41;22.30;;;8.50;;
20802;SDS011;10562;-33.856;151.182;2024-02-28T15:18:11;26.00;;;8.75;;
20802;SDS011;10562;-33.856;151.182;2024-02-28T15:20:42;25.60;;;9.18;;
20802;SDS011;10562;-33.856;151.182;2024-02-28T15:23:15;24.63;;;8.82;;
20802;SDS011;10562;-33.856;151.182;2024-02-28T15:25:47;26.55;;;9.80;;
20802;SDS011;10562;-33.856;151.182;2024-02-28T15:28:20;28.13;;;9.95;;
20802;SDS011;10562;-33.856;151.182;2024-02-28T15:30:52;24.13;;;10.38;;
20802;SDS011;10562;-33.856;151.182;2024-02-28T15:33:24;22.10;;;10.27;;
20802;SDS011;10562;-33.856;151.182;2024-02-28T15:35:55;23.30;;;9.85;;
20802;SDS011;10562;-33.856;151.182;2024-02-28T15:38:31;26.65;;;10.07;;
20802;SDS011;10562;-33.856;151.182;2024-02-28T15:41:02;27.55;;;10.02;;
20802;SDS011;10562;-33.856;151.182;2024-02-28T15:43:33;23.30;;;10.30;;
20802;SDS011;10562;-33.856;151.182;2024-02-28T15:46:04;23.55;;;9.77;;
20802;SDS011;10562;-33.856;151.182;2024-02-28T15:48:36;23.08;;;10.68;;
20802;SDS011;10562;-33.856;151.182;2024-02-28T15:51:07;23.50;;;9.77;;
20802;SDS011;10562;-33.856;151.182;2024-02-28T15:53:40;32.85;;;10.02;;
20802;SDS011;10562;-33.856;151.182;2024-02-28T15:56:11;25.00;;;10.30;;
20802;SDS011;10562;-33.856;151.182;2024-02-28T15:58:42;23.55;;;10.60;;
20802;SDS011;10562;-33.856;151.182;2024-02-28T16:01:13;20.13;;;9.15;;
20802;SDS011;10562;-33.856;151.182;2024-02-28T16:03:43;19.90;;;10.68;;
20802;SDS011;10562;-33.856;151.182;2024-02-28T16:06:14;30.92;;;12.32;;
20802;SDS011;10562;-33.856;151.182;2024-02-28T16:08:48;29.13;;;11.68;;
20802;SDS011;10562;-33.856;151.182;2024-02-28T16:11:19;26.83;;;12.77;;
20802;SDS011;10562;-33.856;151.182;2024-02-28T16:13:50;24.52;;;12.88;;
20802;SDS011;10562;-33.856;151.182;2024-02-28T16:16:21;27.70;;;13.27;;
20802;SDS011;10562;-33.856;151.182;2024-02-28T16:18:52;24.38;;;13.13;;
20802;SDS011;10562;-33.856;151.182;2024-02-28T16:21:23;29.05;;;13.73;;
20802;SDS011;10562;-33.856;151.182;2024-02-28T16:23:56;23.63;;;13.50;;
20802;SDS011;10562;-33.856;151.182;2024-02-28T16:26:27;25.08;;;13.82;;
20802;SDS011;10562;-33.856;151.182;2024-02-28T16:28:58;26.98;;;14.82;;
20802;SDS011;10562;-33.856;151.182;2024-02-28T16:31:28;25.95;;;14.32;;
20802;SDS011;10562;-33.856;151.182;2024-02-28T16:33:59;24.25;;;13.57;;
20802;SDS011;10562;-33.856;151.182;2024-02-28T16:36:30;24.52;;;13.82;;
20802;SDS011;10562;-33.856;151.182;2024-02-28T16:39:03;27.00;;;15.43;;
20802;SDS011;10562;-33.856;151.182;2024-02-28T16:41:34;25.90;;;15.70;;
20802;SDS011;10562;-33.856;151.182;2024-02-28T16:44:05;24.17;;;16.60;;
20802;SDS011;10562;-33.856;151.182;2024-02-28T16:46:36;30.90;;;16.15;;
20802;SDS011;10562;-33.856;151.182;2024-02-28T16:49:06;29.90;;;15.27;;
20802;SDS011;10562;-33.856;151.182;2024-02-28T16:51:37;23.60;;;14.55;;
20802;SDS011;10562;-33.856;151.182;2024-02-28T16:54:10;23.95;;;13.57;;
20802;SDS011;10562;-33.856;151.182;2024-02-28T16:56:40;23.35;;;12.20;;
20802;SDS011;10562;-33.856;151.182;2024-02-28T16:59:11;25.70;;;13.07;;
20802;SDS011;10562;-33.856;151.182;2024-02-28T17:01:42;24.05;;;14.57;;
20802;SDS011;10562;-33.856;151.182;2024-02-28T17:04:14;29.55;;;16.77;;
20802;SDS011;10562;-33.856;151.182;2024-02-28T17:06:45;29.88;;;19.67;;
20802;SDS011;10562;-33.856;151.182;2024-02-28T17:09:18;32.75;;;19.08;;
20802;SDS011;10562;-33.856;151.182;2024-02-28T17:11:49;33.20;;;22.63;;
20802;SDS011;10562;-33.856;151.182;2024-02-28T17:14:20;28.25;;;21.88;;
20802;SDS011;10562;-33.856;151.182;2024-02-28T17:16:51;24.45;;;21.55;;
20802;SDS011;10562;-33.856;151.182;2024-02-28T17:19:22;29.10;;;24.85;;
20802;SDS011;10562;-33.856;151.182;2024-02-28T17:21:53;35.72;;;25.75;;
20802;SDS011;10562;-33.856;151.182;2024-02-28T17:24:26;33.58;;;25.85;;
20802;SDS011;10562;-33.856;151.182;2024-02-28T17:26:56;30.58;;;21.20;;
20802;SDS011;10562;-33.856;151.182;2024-02-28T17:29:27;27.25;;;18.38;;
20802;SDS011;10562;-33.856;151.182;2024-02-28T17:31:59;24.38;;;18.55;;
20802;SDS011;10562;-33.856;151.182;2024-02-28T17:34:30;28.40;;;16.40;;
20802;SDS011;10562;-33.856;151.182;2024-02-28T17:37:01;29.10;;;18.52;;
20802;SDS011;10562;-33.856;151.182;2024-02-28T17:39:33;27.60;;;17.33;;
20802;SDS011;10562;-33.856;151.182;2024-02-28T17:42:04;27.90;;;19.73;;
20802;SDS011;10562;-33.856;151.182;2024-02-28T17:44:35;28.92;;;21.25;;
20802;SDS011;10562;-33.856;151.182;2024-02-28T17:47:06;28.50;;;19.73;;
20802;SDS011;10562;-33.856;151.182;2024-02-28T17:49:37;33.88;;;19.67;;
20802;SDS011;10562;-33.856;151.182;2024-02-28T17:52:08;27.98;;;19.15;;
20802;SDS011;10562;-33.856;151.182;2024-02-28T17:54:41;25.75;;;19.98;;
20802;SDS011;10562;-33.856;151.182;2024-02-28T17:57:11;25.50;;;18.65;;
20802;SDS011;10562;-33.856;151.182;2024-02-28T17:59:43;33.72;;;20.80;;
20802;SDS011;10562;-33.856;151.182;2024-02-28T18:02:14;26.40;;;20.55;;
20802;SDS011;10562;-33.856;151.182;2024-02-28T18:04:45;30.65;;;17.58;;
20802;SDS011;10562;-33.856;151.182;2024-02-28T18:07:16;26.75;;;18.73;;
20802;SDS011;10562;-33.856;151.182;2024-02-28T18:09:48;31.13;;;21.38;;